Time;durP1;ratioP1;P1;durP2;ratioP2;P2;SDS_P1;SDS_P2;PMS_P1;PMS_P2;Temp;Humidity;BMP_temperature;BMP_pressure;BME280_temperature;BME280_humidity;BME280_pressure;Samples;Min_cycle;Max_cycle;Signal;HPM_P1;HPM_P2
2022/09/17 00:00:47;;;;;;;13.32;2.33;;;;;;;-143.48;71.62;78769.75;5057830;28;20037;-40
2022/09/17 00:03:13;;;;;;;10.20;1.50;;;;;;;-143.48;72.43;78777.69;5056726;28;20430;-38
2022/09/17 00:05:39;;;;;;;17.35;1.85;;;;;;;-143.48;71.76;78767.78;5056692;28;20104;-37
2022/09/17 00:08:06;;;;;;;14.85;1.88;;;;;;;-143.48;71.36;78765.78;5056767;28;20016;-41
2022/09/17 00:10:36;;;;;;;11.07;1.75;;;;;;;-143.48;71.50;78777.69;5074865;28;20063;-40
2022/09/17 00:13:02;;;;;;;10.25;1.80;;;;;;;-143.48;71.31;78777.69;5053486;28;20044;-40
2022/09/17 00:15:27;;;;;;;17.48;1.83;;;;;;;-143.48;71.55;78789.59;5053200;28;20482;-39
2022/09/17 00:17:57;;;;;;;12.13;1.95;;;;;;;-143.48;72.03;78801.50;5054451;28;20029;-39
2022/09/17 00:20:25;;;;;;;18.15;1.85;;;;;;;-143.48;72.36;78803.47;5054615;28;20024;-38
2022/09/17 00:22:52;;;;;;;15.30;2.42;;;;;;;-143.48;71.64;78787.63;5054766;28;20398;-33
2022/09/17 00:25:18;;;;;;;12.85;1.95;;;;;;;-143.48;71.20;78785.63;5054324;28;20020;-34
2022/09/17 00:27:43;;;;;;;14.05;2.17;;;;;;;-143.48;71.90;78783.66;5053102;28;20017;-34
2022/09/17 00:30:10;;;;;;;13.93;1.85;;;;;;;-143.48;71.20;78797.53;5053573;28;20046;-33
2022/09/17 00:32:35;;;;;;;11.38;1.85;;;;;;;-143.48;71.18;78791.59;5053206;28;20067;-34
2022/09/17 00:35:00;;;;;;;15.30;2.25;;;;;;;-143.48;70.74;78791.59;5053111;28;20399;-34
2022/09/17 00:37:25;;;;;;;11.38;1.85;;;;;;;-143.48;70.33;78789.59;5052793;28;20060;-33
2022/09/17 00:39:51;;;;;;;12.27;2.10;;;;;;;-143.48;70.76;78777.69;5053137;28;20107;-34
2022/09/17 00:42:17;;;;;;;14.98;2.35;;;;;;;-143.48;70.52;78789.59;5053575;28;20056;-33
2022/09/17 00:44:49;;;;;;;19.20;2.13;;;;;;;-143.48;70.63;78809.44;5053710;28;20028;-33
2022/09/17 00:47:20;;;;;;;14.00;2.40;;;;;;;-143.48;71.83;78803.47;5054316;28;20035;-33
2022/09/17 00:49:53;;;;;;;10.38;1.80;;;;;;;-143.48;71.42;78819.34;5053823;28;20029;-34
2022/09/17 00:52:25;;;;;;;14.90;1.95;;;;;;;-143.48;71.49;78809.44;5054286;28;20028;-33
2022/09/17 00:55:02;;;;;;;17.25;2.10;;;;;;;-143.48;71.10;78795.53;5054469;28;20029;-34
2022/09/17 00:57:29;;;;;;;11.32;1.73;;;;;;;-143.48;70.66;78801.50;5053831;28;20025;-35
2022/09/17 00:59:55;;;;;;;13.30;1.75;;;;;;;-143.48;69.77;78801.50;5054305;28;20028;-36
2022/09/17 01:02:21;;;;;;;14.27;1.70;;;;;;;-143.48;68.67;78797.53;5054400;28;20036;-34
2022/09/17 01:04:46;;;;;;;11.63;1.80;;;;;;;-143.48;67.71;78781.66;5053718;28;20364;-33
2022/09/17 01:07:24;;;;;;;12.13;1.63;;;;;;;-143.48;67.81;78775.72;5054036;28;20104;-37
2022/09/17 01:09:53;;;;;;;10.40;1.80;;;;;;;-143.48;66.61;78771.75;5052409;28;20135;-34
2022/09/17 01:12:31;;;;;;;10.45;1.98;;;;;;;-143.48;66.33;78759.84;5058057;28;20076;-34
2022/09/17 01:15:17;;;;;;;14.10;1.80;;;;;;;-143.48;67.45;78779.69;5073893;28;20430;-34
2022/09/17 01:18:03;;;;;;;15.82;1.90;;;;;;;-143.48;67.87;78785.63;5072743;28;20395;-34
2022/09/17 01:20:37;;;;;;;10.50;1.45;;;;;;;-143.48;66.46;78781.66;5073785;28;20086;-33
2022/09/17 01:23:33;;;;;;;15.50;1.55;;;;;;;-143.48;65.67;78777.69;5073263;28;20024;-34
2022/09/17 01:26:19;;;;;;;12.50;1.50;;;;;;;-143.48;65.82;78779.69;5073746;28;20506;-34
2022/09/17 01:29:26;;;;;;;12.15;1.52;;;;;;;-143.48;64.20;78771.75;5073637;28;20028;-34
2022/09/17 01:32:19;;;;;;;10.23;1.60;;;;;;;-143.48;63.96;78771.75;5072706;28;20044;-33
2022/09/17 01:35:08;;;;;;;8.80;1.83;;;;;;;-143.48;64.18;78777.69;5073644;28;20074;-35
2022/09/17 01:37:52;;;;;;;14.45;1.52;;;;;;;-143.48;63.96;78779.69;5073478;28;20115;-36
2022/09/17 01:40:29;;;;;;;12.57;2.03;;;;;;;-143.48;64.89;78781.66;5073707;28;20030;-36
2022/09/17 01:43:01;;;;;;;7.22;1.05;;;;;;;-143.48;65.13;78771.75;5073174;28;20028;-34
2022/09/17 01:45:50;;;;;;;13.10;1.52;;;;;;;-143.48;65.13;78769.75;5074036;28;20025;-34
2022/09/17 01:48:16;;;;;;;9.55;1.20;;;;;;;-143.48;64.68;78775.72;5073275;28;20020;-33
2022/09/17 01:50:52;;;;;;;8.35;1.70;;;;;;;-143.48;65.06;78769.75;5073386;28;20016;-35
2022/09/17 01:53:24;;;;;;;8.10;1.55;;;;;;;-143.48;64.86;78777.69;5073206;28;20438;-36
2022/09/17 01:55:52;;;;;;;7.88;1.50;;;;;;;-143.48;65.34;78787.63;5073087;28;20025;-35
2022/09/17 01:58:34;;;;;;;8.23;1.52;;;;;;;-143.48;65.61;78805.47;5073262;28;20021;-34
2022/09/17 02:01:04;;;;;;;10.07;1.10;;;;;;;-143.48;65.41;78807.44;5073424;28;20043;-35
2022/09/17 02:03:36;;;;;;;16.02;1.90;;;;;;;-143.48;65.32;78811.41;5073063;28;20023;-34
2022/09/17 02:06:10;;;;;;;13.25;1.70;;;;;;;-143.48;65.78;78831.25;5073251;28;20024;-36
2022/09/17 02:08:44;;;;;;;6.80;1.30;;;;;;;-143.48;66.06;78813.41;5072983;28;20017;-34
2022/09/17 02:11:14;;;;;;;8.60;1.33;;;;;;;-143.48;66.52;78831.25;5073568;28;20522;-34
2022/09/17 02:13:50;;;;;;;8.40;1.67;;;;;;;-143.48;66.15;78825.31;5072835;28;20547;-34
2022/09/17 02:16:24;;;;;;;8.52;1.13;;;;;;;-143.48;66.13;78827.28;5073499;28;20028;-34
2022/09/17 02:18:59;;;;;;;10.45;1.30;;;;;;;-143.48;66.56;78833.22;5073688;28;20474;-34
2022/09/17 02:21:27;;;;;;;10.38;1.67;;;;;;;-143.48;66.45;78841.16;5072916;28;20103;-34
2022/09/17 02:24:16;;;;;;;10.73;2.25;;;;;;;-143.48;67.90;78861.00;5073162;28;20025;-33
2022/09/17 02:26:47;;;;;;;13.88;2.15;;;;;;;-143.48;68.01;78874.88;5073111;28;20047;-33
2022/09/17 02:29:31;;;;;;;16.58;1.90;;;;;;;-143.48;69.47;78898.69;5072797;28;20021;-34
2022/09/17 02:31:57;;;;;;;12.07;1.63;;;;;;;-143.48;69.43;78904.63;5072922;28;20032;-33
2022/09/17 02:34:24;;;;;;;10.13;1.40;;;;;;;-143.48;68.82;78898.69;5075251;28;20039;-34
2022/09/17 02:36:50;;;;;;;10.20;1.65;;;;;;;-143.48;68.11;78882.81;5076708;28;20114;-33
2022/09/17 02:39:16;;;;;;;11.15;1.50;;;;;;;-143.48;68.51;78896.69;5077059;28;20022;-33
2022/09/17 02:42:21;;;;;;;12.80;1.48;;;;;;;-143.48;69.17;78910.59;5076693;28;20024;-33
2022/09/17 02:45:09;;;;;;;15.15;2.10;;;;;;;-143.48;69.52;78924.47;5076355;28;20421;-33
2022/09/17 02:47:55;;;;;;;11.57;1.65;;;;;;;-143.48;69.47;78910.59;5076648;28;20012;-33
2022/09/17 02:50:52;;;;;;;11.00;1.50;;;;;;;-143.48;70.22;78916.53;5058242;28;20497;-33
2022/09/17 02:53:55;;;;;;;9.25;1.60;;;;;;;-143.48;71.13;78928.44;5076513;28;20040;-34
2022/09/17 02:56:43;;;;;;;10.93;1.70;;;;;;;-143.48;70.91;78918.53;5076490;28;20089;-34
2022/09/17 02:59:18;;;;;;;7.63;1.42;;;;;;;-143.48;70.55;78896.69;5076357;28;20033;-35
2022/09/17 03:01:47;;;;;;;10.80;1.42;;;;;;;-143.48;69.47;78872.91;5076505;28;20074;-34
2022/09/17 03:04:16;;;;;;;12.60;2.00;;;;;;;-143.48;68.98;78864.97;5076569;28;20032;-34
2022/09/17 03:06:44;;;;;;;18.00;1.83;;;;;;;-143.48;69.22;78861.00;5076759;28;20042;-35
2022/09/17 03:09:09;;;;;;;8.40;2.13;;;;;;;-143.48;69.64;78868.94;5076496;28;20024;-35
2022/09/17 03:11:35;;;;;;;11.25;1.70;;;;;;;-143.48;69.74;78876.88;5076031;28;20068;-36
2022/09/17 03:14:00;;;;;;;18.08;2.15;;;;;;;-143.48;70.38;78900.66;5075695;28;20067;-36
2022/09/17 03:16:25;;;;;;;15.75;1.80;;;;;;;-143.48;70.47;78898.69;5076058;28;20483;-35
2022/09/17 03:18:51;;;;;;;13.75;2.42;;;;;;;-143.48;70.05;78890.75;5057762;28;20025;-35
2022/09/17 03:21:16;;;;;;;13.50;1.67;;;;;;;-143.48;70.00;78906.63;5076052;28;20052;-37
2022/09/17 03:23:41;;;;;;;11.68;1.92;;;;;;;-143.48;69.45;78914.56;5057709;28;20036;-36
2022/09/17 03:26:07;;;;;;;17.73;2.22;;;;;;;-143.48;70.24;78924.47;5057704;28;20494;-38
2022/09/17 03:28:32;;;;;;;13.13;1.50;;;;;;;-143.48;70.10;78914.56;5075910;28;20074;-35
2022/09/17 03:30:58;;;;;;;12.10;1.58;;;;;;;-143.48;69.06;78920.50;5076056;28;20111;-37
2022/09/17 03:33:23;;;;;;;9.90;1.25;;;;;;;-143.48;69.17;78932.41;5075465;28;20479;-37
2022/09/17 03:35:48;;;;;;;12.88;1.60;;;;;;;-143.48;69.33;78930.41;5075630;28;20020;-36
2022/09/17 03:38:14;;;;;;;10.02;1.40;;;;;;;-143.48;66.93;78922.50;5075592;28;20028;-35
2022/09/17 03:40:40;;;;;;;13.55;1.70;;;;;;;-143.48;65.65;78904.63;5075389;28;20379;-37
2022/09/17 03:43:06;;;;;;;5.72;1.15;;;;;;;-143.48;67.25;78930.41;5075341;28;20081;-35
2022/09/17 03:45:31;;;;;;;13.90;1.70;;;;;;;-143.48;66.58;78938.34;5074744;28;20021;-36
2022/09/17 03:47:57;;;;;;;10.40;2.10;;;;;;;-143.48;65.63;78930.41;5075228;28;20031;-35
2022/09/17 03:50:22;;;;;;;10.38;1.33;;;;;;;-143.48;64.79;78932.41;5076302;28;20027;-35
2022/09/17 03:52:47;;;;;;;6.78;1.27;;;;;;;-143.48;64.24;78926.47;5075382;28;20032;-35
2022/09/17 03:55:13;;;;;;;8.52;1.25;;;;;;;-143.48;64.40;78914.56;5075176;28;20383;-35
2022/09/17 03:57:38;;;;;;;9.13;1.52;;;;;;;-143.48;64.52;78892.75;5075246;28;20024;-35
2022/09/17 04:00:05;;;;;;;9.32;1.10;;;;;;;-143.48;63.83;78866.94;5075289;28;20020;-37
2022/09/17 04:02:30;;;;;;;4.53;0.93;;;;;;;-143.48;64.46;78866.94;5075162;28;20100;-36
2022/09/17 04:04:55;;;;;;;6.25;1.10;;;;;;;-143.48;64.41;78864.97;5074859;28;20024;-36
2022/09/17 04:07:21;;;;;;;11.98;1.60;;;;;;;-143.48;64.77;78870.91;5075356;28;20034;-35
2022/09/17 04:09:46;;;;;;;7.50;1.30;;;;;;;-143.48;63.83;78872.91;5074994;28;20017;-38
2022/09/17 04:12:11;;;;;;;7.05;1.30;;;;;;;-143.48;64.23;78874.88;5074573;28;20052;-35
2022/09/17 04:14:37;;;;;;;7.93;1.20;;;;;;;-143.48;64.33;78880.84;5075004;28;20113;-36
2022/09/17 04:17:02;;;;;;;7.55;1.10;;;;;;;-143.48;64.50;78890.75;5074814;28;20017;-36
2022/09/17 04:19:27;;;;;;;9.63;1.35;;;;;;;-143.48;64.50;78896.69;5074521;28;20029;-37
2022/09/17 04:21:53;;;;;;;5.70;1.00;;;;;;;-143.48;65.72;78910.59;5074802;28;20025;-35
2022/09/17 04:24:18;;;;;;;5.88;0.93;;;;;;;-143.48;66.30;78926.47;5074816;28;20082;-37
2022/09/17 04:26:43;;;;;;;8.77;1.40;;;;;;;-143.48;65.90;78918.53;5074629;28;20135;-35
2022/09/17 04:29:09;;;;;;;8.75;1.40;;;;;;;-143.48;66.33;78930.41;5074647;28;20016;-35
2022/09/17 04:31:34;;;;;;;7.32;1.15;;;;;;;-143.48;65.60;78922.50;5074652;28;20025;-35
2022/09/17 04:34:00;;;;;;;5.18;0.73;;;;;;;-143.48;64.89;78912.56;5074774;28;20028;-36
2022/09/17 04:36:25;;;;;;;7.25;1.00;;;;;;;-143.48;65.41;78916.53;5074196;28;20031;-36
2022/09/17 04:38:50;;;;;;;3.47;0.60;;;;;;;-143.48;65.50;78926.47;5074402;28;20036;-35
2022/09/17 04:41:16;;;;;;;8.43;1.50;;;;;;;-143.48;65.40;78930.41;5074397;28;20024;-36
2022/09/17 04:43:41;;;;;;;6.53;1.10;;;;;;;-143.48;65.62;78928.44;5074618;28;20024;-36
2022/09/17 04:46:07;;;;;;;6.32;1.00;;;;;;;-143.48;65.43;78926.47;5074133;28;20025;-36
2022/09/17 04:48:32;;;;;;;12.93;1.15;;;;;;;-143.48;65.13;78936.38;5073998;28;20024;-39
2022/09/17 04:50:57;;;;;;;4.18;0.80;;;;;;;-143.48;65.58;78944.31;5074493;28;20025;-36
2022/09/17 04:53:23;;;;;;;9.45;1.05;;;;;;;-143.48;65.54;78950.25;5056032;28;20545;-36
2022/09/17 04:55:48;;;;;;;7.00;0.90;;;;;;;-143.48;65.57;78948.28;5073894;28;20025;-35
2022/09/17 04:58:13;;;;;;;5.43;0.88;;;;;;;-143.48;65.51;78954.22;5073813;28;20471;-35
2022/09/17 05:00:41;;;;;;;6.57;1.05;;;;;;;-143.48;65.44;78938.34;5074062;28;20025;-35
2022/09/17 05:03:06;;;;;;;9.30;1.10;;;;;;;-143.48;65.19;78960.19;5073939;28;20024;-36
2022/09/17 05:05:32;;;;;;;6.15;1.17;;;;;;;-143.48;65.45;78956.22;5073763;28;20467;-36
2022/09/17 05:07:57;;;;;;;11.07;1.10;;;;;;;-143.48;65.88;78968.09;5074046;28;20099;-37
2022/09/17 05:10:23;;;;;;;6.25;1.13;;;;;;;-143.48;66.43;78972.06;5074167;28;20115;-35
2022/09/17 05:12:50;;;;;;;4.75;1.52;;;;;;;-143.48;66.07;78970.09;5073478;28;20060;-35
2022/09/17 05:15:16;;;;;;;7.38;0.90;;;;;;;-143.48;66.62;78978.03;5073670;28;20043;-36
2022/09/17 05:17:41;;;;;;;5.13;0.90;;;;;;;-143.48;66.73;78976.03;5074003;28;20032;-36
2022/09/17 05:20:07;;;;;;;8.13;1.15;;;;;;;-143.48;66.75;78964.16;5073521;28;20025;-35
2022/09/17 05:22:32;;;;;;;4.28;0.88;;;;;;;-143.48;67.04;78978.03;5073868;28;20028;-35
2022/09/17 05:24:57;;;;;;;11.48;1.55;;;;;;;-143.48;67.17;78982.00;5073698;28;20352;-35
2022/09/17 05:27:23;;;;;;;6.30;1.30;;;;;;;-143.48;67.08;78968.09;5073548;28;20020;-35
2022/09/17 05:29:48;;;;;;;7.97;1.20;;;;;;;-143.48;67.29;78956.22;5073361;28;20048;-37
2022/09/17 05:32:14;;;;;;;7.80;1.13;;;;;;;-143.48;66.52;78938.34;5073716;28;20101;-35
2022/09/17 05:34:40;;;;;;;5.45;1.10;;;;;;;-143.48;67.10;78954.22;5073272;28;20385;-35
2022/09/17 05:37:05;;;;;;;11.75;1.30;;;;;;;-143.48;66.22;78930.41;5073501;28;20472;-36
2022/09/17 05:39:31;;;;;;;5.57;0.85;;;;;;;-143.48;65.87;78918.53;5073527;28;20158;-36
2022/09/17 05:41:58;;;;;;;4.60;0.90;;;;;;;-143.48;65.03;78912.56;5073635;28;20043;-35
2022/09/17 05:44:24;;;;;;;6.25;1.02;;;;;;;-143.48;65.57;78904.63;5073293;28;20467;-36
2022/09/17 05:46:52;;;;;;;3.90;0.88;;;;;;;-143.48;66.35;78910.59;5073884;28;20020;-36
2022/09/17 05:49:17;;;;;;;9.93;1.20;;;;;;;-143.48;66.99;78900.66;5073307;28;20100;-36
2022/09/17 05:51:42;;;;;;;4.97;1.13;;;;;;;-143.48;66.79;78900.66;5073284;28;20056;-34
2022/09/17 05:54:08;;;;;;;8.80;1.20;;;;;;;-143.48;67.76;78916.53;5073502;28;20060;-35
2022/09/17 05:56:33;;;;;;;8.27;1.30;;;;;;;-143.48;67.35;78906.63;5073416;28;20023;-34
2022/09/17 05:58:59;;;;;;;6.57;1.02;;;;;;;-143.48;67.25;78896.69;5055036;28;20064;-36
2022/09/17 06:01:24;;;;;;;4.97;0.85;;;;;;;-143.48;67.30;78878.84;5073322;28;20032;-35
2022/09/17 06:03:50;;;;;;;10.60;1.45;;;;;;;-143.48;67.44;78870.91;5073691;28;20022;-37
2022/09/17 06:06:15;;;;;;;8.32;1.52;;;;;;;-143.48;68.12;78878.84;5073351;28;20460;-37
2022/09/17 06:08:40;;;;;;;8.02;1.20;;;;;;;-143.48;68.03;78878.84;5056336;28;20029;-35
2022/09/17 06:11:06;;;;;;;6.70;1.27;;;;;;;-143.48;68.87;78900.66;5076950;28;20028;-37
2022/09/17 06:13:32;;;;;;;7.35;1.45;;;;;;;-143.48;69.27;78896.69;5076945;28;20106;-35
2022/09/17 06:15:58;;;;;;;6.82;0.98;;;;;;;-143.48;68.36;78888.78;5077004;28;20547;-37
2022/09/17 06:18:24;;;;;;;8.10;1.50;;;;;;;-143.48;68.89;78882.81;5077023;28;20016;-36
2022/09/17 06:21:16;;;;;;;9.73;1.15;;;;;;;-143.48;68.49;78876.88;5077391;28;20024;-36
2022/09/17 06:23:42;;;;;;;13.90;1.88;;;;;;;-143.48;68.50;78868.94;5072440;28;20505;-37
2022/09/17 06:26:08;;;;;;;7.57;1.30;;;;;;;-143.48;67.18;78851.09;5077007;28;20025;-36
2022/09/17 06:28:33;;;;;;;11.45;1.58;;;;;;;-143.48;67.07;78837.19;5076694;28;20077;-37
2022/09/17 06:31:00;;;;;;;7.78;1.45;;;;;;;-143.48;66.39;78813.41;5076938;28;20028;-37
2022/09/17 06:33:25;;;;;;;10.70;1.40;;;;;;;-143.48;66.88;78831.25;5076680;28;20379;-37
2022/09/17 06:35:59;;;;;;;8.75;1.30;;;;;;;-143.48;67.41;78841.16;5076674;28;20146;-38
2022/09/17 06:38:26;;;;;;;9.98;1.35;;;;;;;-143.48;66.92;78839.19;5076755;28;20589;-36
2022/09/17 06:40:52;;;;;;;11.68;1.50;;;;;;;-143.48;67.03;78851.09;5076385;28;20024;-37
2022/09/17 06:43:17;;;;;;;9.45;1.25;;;;;;;-143.48;67.47;78849.09;5076949;28;20032;-37
2022/09/17 06:45:43;;;;;;;8.07;1.10;;;;;;;-143.48;67.73;78831.25;5076412;28;20426;-36
2022/09/17 06:48:08;;;;;;;9.18;1.30;;;;;;;-143.48;66.19;78767.78;5076677;28;20020;-36
2022/09/17 06:50:33;;;;;;;9.93;1.40;;;;;;;-143.48;64.46;78722.16;5076526;28;20078;-35
2022/09/17 06:52:59;;;;;;;9.50;1.50;;;;;;;-143.48;62.97;78696.38;5076366;28;20424;-38
2022/09/17 06:55:24;;;;;;;10.20;1.90;;;;;;;-143.48;65.18;78757.88;5076293;28;20427;-36
2022/09/17 06:57:49;;;;;;;5.10;1.17;;;;;;;-143.48;67.61;78835.22;5076430;28;20639;-37
2022/09/17 07:00:15;;;;;;;4.80;0.88;;;;;;;-143.48;67.45;78851.09;5076425;28;20024;-36
2022/09/17 07:02:40;;;;;;;14.65;1.40;;;;;;;-143.48;67.23;78847.13;5076270;28;20089;-36
2022/09/17 07:05:06;;;;;;;7.85;1.20;;;;;;;-143.48;66.46;78813.41;5076626;28;20028;-36
2022/09/17 07:07:31;;;;;;;5.38;0.85;;;;;;;-143.48;68.55;78837.19;5076316;28;20031;-36
2022/09/17 07:09:56;;;;;;;9.82;1.30;;;;;;;-143.48;67.34;78837.19;5076196;28;20078;-35
2022/09/17 07:12:22;;;;;;;6.55;1.13;;;;;;;-143.48;68.14;78809.44;5075567;28;20515;-35
2022/09/17 07:14:48;;;;;;;8.68;1.35;;;;;;;-143.48;64.90;78654.72;5075622;28;20056;-35
2022/09/17 07:17:14;;;;;;;9.43;1.30;;;;;;;-143.48;51.10;78051.84;5057719;28;20047;-37
2022/09/17 07:19:39;;;;;;;11.07;1.67;;;;;;;-143.48;42.64;77688.94;5074992;28;20040;-36
2022/09/17 07:22:05;;;;;;;8.65;1.23;;;;;;;-143.48;41.36;77655.25;5075561;28;20363;-36
2022/09/17 07:24:31;;;;;;;7.95;1.30;;;;;;;-143.48;45.09;78016.13;5075796;28;20036;-36
2022/09/17 07:26:56;;;;;;;9.52;1.40;;;;;;;-143.48;52.10;78240.22;5075483;28;20029;-37
2022/09/17 07:29:25;;;;;;;6.80;1.40;;;;;;;-143.48;44.24;77895.19;5075752;28;20020;-37
2022/09/17 07:31:50;;;;;;;7.70;1.73;;;;;;;-143.48;43.68;77734.56;5076077;28;20029;-36
2022/09/17 07:34:16;;;;;;;8.40;1.70;;;;;;;-143.48;39.58;77560.06;5074874;28;20023;-36
2022/09/17 07:36:43;;;;;;;6.40;1.60;;;;;;;-143.48;38.60;77512.47;5074671;28;20031;-37
2022/09/17 07:39:08;;;;;;;4.75;1.13;;;;;;;-143.48;38.27;77447.03;5075822;28;20032;-37
2022/09/17 07:41:34;;;;;;;8.55;1.60;;;;;;;-143.48;39.76;77677.06;5075538;28;20467;-36
2022/09/17 07:44:01;;;;;;;4.65;1.40;;;;;;;-143.48;38.44;77516.44;5075354;28;20364;-36
2022/09/17 07:46:31;;;;;;;6.60;1.35;;;;;;;-143.48;38.57;77595.75;5075399;28;20052;-36
2022/09/17 07:48:56;;;;;;;4.78;1.25;;;;;;;-143.48;39.78;77623.50;5058200;28;20031;-38
2022/09/17 07:51:24;;;;;;;5.40;1.20;;;;;;;-143.48;37.30;77387.56;5074983;28;20386;-37
2022/09/17 07:53:54;;;;;;;7.75;1.25;;;;;;;-143.48;38.14;77532.31;5075240;28;20024;-36
2022/09/17 07:56:21;;;;;;;6.70;1.30;;;;;;;-143.48;37.14;77476.78;5075127;28;20035;-37
2022/09/17 07:58:46;;;;;;;7.22;1.30;;;;;;;-143.48;36.86;77516.44;5074119;28;20387;-37
2022/09/17 08:01:17;;;;;;;4.38;1.33;;;;;;;-143.48;35.63;77417.31;5056801;28;20024;-36
2022/09/17 08:03:50;;;;;;;3.25;1.02;;;;;;;-143.48;37.41;77536.28;5074936;28;20492;-37
2022/09/17 08:06:18;;;;;;;4.55;0.93;;;;;;;-143.48;40.73;77827.75;5074837;28;20467;-37
2022/09/17 08:08:44;;;;;;;7.80;1.25;;;;;;;-143.48;45.87;78172.81;5074942;28;20016;-37
2022/09/17 08:11:12;;;;;;;4.75;0.88;;;;;;;-143.48;46.97;78258.06;5074616;28;20119;-35
2022/09/17 08:13:38;;;;;;;6.03;1.00;;;;;;;-143.48;45.12;78059.75;5074445;28;20044;-35
2022/09/17 08:16:09;;;;;;;2.95;0.90;;;;;;;-143.48;38.00;77639.38;5074768;28;20036;-36
2022/09/17 08:18:35;;;;;;;2.40;0.98;;;;;;;-143.48;36.87;77453.00;5074109;28;20085;-36
2022/09/17 08:21:05;;;;;;;4.68;1.27;;;;;;;-143.48;36.00;77409.38;5073317;28;20124;-36
2022/09/17 08:23:33;;;;;;;4.97;1.40;;;;;;;-143.48;37.14;77530.31;5073100;28;20079;-35
2022/09/17 08:25:59;;;;;;;4.43;0.95;;;;;;;-143.48;38.31;77623.50;5073542;28;20082;-37
2022/09/17 08:28:27;;;;;;;1.90;0.80;;;;;;;-143.48;37.06;77460.94;5074186;28;20082;-36
2022/09/17 08:30:53;;;;;;;3.85;1.27;;;;;;;-143.48;42.96;77920.94;5073639;28;20031;-36
2022/09/17 08:33:19;;;;;;;3.75;0.93;;;;;;;-143.48;48.88;78277.91;5073403;28;20035;-36
2022/09/17 08:35:52;;;;;;;6.13;1.08;;;;;;;-143.48;49.47;78291.78;5074298;28;20031;-35
2022/09/17 08:38:17;;;;;;;5.25;0.95;;;;;;;-143.48;41.03;77696.88;5057211;28;20029;-36
2022/09/17 08:40:59;;;;;;;8.50;1.30;;;;;;;-143.48;37.94;77502.56;5073942;28;20024;-37
2022/09/17 08:43:24;;;;;;;4.43;0.95;;;;;;;-143.48;35.82;77294.38;5074223;28;20037;-36
2022/09/17 08:45:57;;;;;;;5.13;1.10;;;;;;;-143.48;36.93;77482.75;5074214;28;20375;-36
2022/09/17 08:48:23;;;;;;;;;;;;;;;-143.48;42.22;77893.19;5074797;28;20060;-36
2022/09/17 08:50:50;;;;;;;4.47;1.10;;;;;;;-143.48;39.43;77675.06;5073801;28;19931;-36
2022/09/17 08:53:48;;;;;;;6.65;1.23;;;;;;;-143.48;46.39;78125.22;5073962;28;20485;-36
2022/09/17 08:56:17;;;;;;;6.93;1.10;;;;;;;-143.48;46.09;78065.72;5073733;28;20472;-36
2022/09/17 08:59:04;;;;;;;7.15;1.42;;;;;;;-143.48;48.92;78188.66;5073941;28;20162;-36
2022/09/17 09:01:59;;;;;;;8.57;1.25;;;;;;;-143.48;49.66;78212.47;5073996;28;20051;-36
2022/09/17 09:04:45;;;;;;;5.63;0.88;;;;;;;-143.48;45.81;78032.00;5073510;28;20025;-36
2022/09/17 09:07:22;;;;;;;5.32;1.15;;;;;;;-143.48;49.59;78224.38;5073579;28;20129;-36
2022/09/17 09:10:04;;;;;;;10.20;1.58;;;;;;;-143.48;50.74;78283.84;5073522;28;20013;-36
2022/09/17 09:12:33;;;;;;;9.48;1.40;;;;;;;-143.48;51.08;78301.72;5073534;28;20056;-36
2022/09/17 09:15:17;;;;;;;21.65;2.03;;;;;;;-143.48;46.50;78028.03;5073982;28;20063;-37
2022/09/17 09:17:45;;;;;;;7.03;1.20;;;;;;;-143.48;42.18;77738.53;5073166;28;20085;-36
2022/09/17 09:20:20;;;;;;;5.10;1.20;;;;;;;-143.48;43.14;77817.84;5073689;28;20495;-37
2022/09/17 09:22:49;;;;;;;4.05;1.00;;;;;;;-143.48;44.39;77897.16;5073956;28;20031;-36
2022/09/17 09:25:17;;;;;;;6.75;1.30;;;;;;;-143.48;45.49;77938.81;5073578;28;20494;-35
2022/09/17 09:28:05;;;;;;;5.78;1.30;;;;;;;-143.48;45.05;77915.00;5073321;28;20126;-36
2022/09/17 09:30:51;;;;;;;10.73;1.50;;;;;;;-143.48;45.04;77901.13;5073318;28;20029;-35
2022/09/17 09:33:26;;;;;;;7.28;1.50;;;;;;;-143.48;44.31;77857.50;5073568;28;20030;-36
2022/09/17 09:35:52;;;;;;;6.03;1.60;;;;;;;-143.48;44.12;77843.63;5073437;28;20017;-36
2022/09/17 09:38:30;;;;;;;8.15;1.55;;;;;;;-143.48;46.14;77970.53;5073813;28;20028;-35
2022/09/17 09:41:12;;;;;;;9.00;1.38;;;;;;;-143.48;51.34;78258.06;5073541;28;20479;-36
2022/09/17 09:43:50;;;;;;;5.22;1.23;;;;;;;-143.48;56.83;78414.75;5072808;28;20071;-36
2022/09/17 09:46:44;;;;;;;4.78;1.02;;;;;;;-143.48;58.96;78515.91;5073488;28;20021;-36
2022/09/17 09:49:21;;;;;;;8.27;1.15;;;;;;;-143.48;59.11;78494.06;5073544;28;20486;-36
2022/09/17 09:52:05;;;;;;;8.40;1.42;;;;;;;-143.48;58.46;78392.94;5055625;28;20366;-37
2022/09/17 09:54:52;;;;;;;4.88;1.25;;;;;;;-143.48;56.92;78283.84;5073369;28;20028;-36
2022/09/17 09:57:30;;;;;;;6.60;1.38;;;;;;;-143.48;54.25;78149.00;5072923;28;20051;-35
2022/09/17 10:00:36;;;;;;;7.97;1.38;;;;;;;-143.48;53.69;78099.44;5073152;28;20525;-37
2022/09/17 10:03:21;;;;;;;8.52;1.30;;;;;;;-143.48;53.15;78152.97;5050860;28;20059;-36
2022/09/17 10:05:58;;;;;;;11.02;1.40;;;;;;;-143.48;52.22;78061.75;5073140;28;20111;-35
2022/09/17 10:08:25;;;;;;;9.07;1.25;;;;;;;-143.48;52.52;78004.25;5072978;28;20027;-37
2022/09/17 10:10:56;;;;;;;8.65;1.70;;;;;;;-143.48;50.69;78012.16;5055209;28;20113;-37
2022/09/17 10:13:22;;;;;;;8.57;1.48;;;;;;;-143.48;47.27;77926.91;5073097;28;20040;-36
2022/09/17 10:15:47;;;;;;;5.65;1.27;;;;;;;-143.48;47.37;77972.50;5072818;28;20087;-38
2022/09/17 10:18:18;;;;;;;7.55;1.30;;;;;;;-143.48;49.16;78077.63;5072666;28;20025;-36
2022/09/17 10:20:56;;;;;;;7.05;1.02;;;;;;;-143.48;52.34;78244.19;5055209;28;20443;-37
2022/09/17 10:23:24;;;;;;;7.10;1.48;;;;;;;-143.48;49.90;78039.94;5072454;28;20035;-37
2022/09/17 10:25:51;;;;;;;7.68;1.40;;;;;;;-143.48;47.74;77952.69;5072689;28;20028;-37
2022/09/17 10:28:29;;;;;;;5.97;1.13;;;;;;;-143.48;49.15;78095.47;5073460;28;20028;-38
2022/09/17 10:31:02;;;;;;;11.80;1.60;;;;;;;-143.48;51.58;78252.13;5072524;28;20056;-37
2022/09/17 10:33:30;;;;;;;6.65;1.60;;;;;;;-143.48;52.63;78281.88;5054603;28;20021;-38
2022/09/17 10:36:08;;;;;;;8.13;1.50;;;;;;;-143.48;49.94;78129.16;5072698;28;20031;-34
2022/09/17 10:38:37;;;;;;;6.15;1.42;;;;;;;-143.48;48.13;78073.66;5054520;28;20086;-36
2022/09/17 10:41:23;;;;;;;8.10;1.70;;;;;;;-143.48;44.99;77907.06;5072664;28;20352;-37
2022/09/17 10:43:49;;;;;;;8.85;1.50;;;;;;;-143.48;45.80;77913.03;5072716;28;20024;-36
2022/09/17 10:46:28;;;;;;;7.10;1.48;;;;;;;-143.48;46.04;77869.41;5073243;28;20456;-35
2022/09/17 10:49:07;;;;;;;6.00;1.27;;;;;;;-143.48;46.27;77865.44;5072491;28;20055;-35
2022/09/17 10:51:33;;;;;;;9.55;1.55;;;;;;;-143.48;44.32;77853.53;5073025;28;20051;-35
2022/09/17 10:54:19;;;;;;;8.05;1.30;;;;;;;-143.48;45.40;77893.19;5073107;28;20021;-36
2022/09/17 10:56:53;;;;;;;9.55;1.70;;;;;;;-143.48;44.01;77800.00;5076199;28;20024;-36
2022/09/17 11:00:06;;;;;;;9.32;1.77;;;;;;;-143.48;41.18;77780.16;5075895;28;20079;-36
2022/09/17 11:02:50;;;;;;;7.07;1.52;;;;;;;-143.48;41.16;77740.50;5055211;28;20070;-36
2022/09/17 11:05:18;;;;;;;5.82;1.52;;;;;;;-143.48;41.83;77756.38;5076250;28;20511;-37
2022/09/17 11:07:55;;;;;;;9.73;1.67;;;;;;;-143.48;41.02;77790.06;5075961;28;20086;-37
2022/09/17 11:10:34;;;;;;;10.88;1.73;;;;;;;-143.48;41.22;77768.25;5075766;28;20032;-37
2022/09/17 11:13:06;;;;;;;8.90;1.70;;;;;;;-143.48;40.31;77784.13;5075758;28;20412;-36
2022/09/17 11:15:55;;;;;;;7.95;2.13;;;;;;;-143.48;41.10;77665.16;5076227;28;20378;-36
2022/09/17 11:18:34;;;;;;;10.23;1.50;;;;;;;-143.48;39.84;77645.31;5075855;28;20028;-35
2022/09/17 11:21:14;;;;;;;10.57;1.90;;;;;;;-143.48;41.25;77788.09;5075756;28;20032;-35
2022/09/17 11:23:55;;;;;;;11.18;1.80;;;;;;;-143.48;42.24;78008.22;5075337;28;20071;-35
2022/09/17 11:26:38;;;;;;;6.88;1.45;;;;;;;-143.48;41.35;78008.22;5057253;28;20024;-36
2022/09/17 11:29:16;;;;;;;8.68;1.90;;;;;;;-143.48;38.05;77873.38;5074468;28;20016;-37
2022/09/17 11:32:12;;;;;;;6.82;1.48;;;;;;;-143.48;38.47;77950.69;5074050;28;20024;-37